MA15 weather

Pond Road Heliport
Gloucester, Massachusetts, United States

Public forecast

Using degrees Fahrenheit for public forecast. Weather courtesy of forecast.io.

Closest aviation weather report (METAR) to Pond Road Heliport

Closest report is Beverly Municipal Airport, 12.4 nm (22.9 km) WSW. Retrieved 2019/11/15 18:53 UTC (25 minutes ago):

KBVY 151853Z 25013KT 10SM CLR 11/M06 A3002 RMK AO2 SLP163 T01061056

Closest aviation forecast (TAF) to Pond Road Heliport

Closest forecast is General Edward Lawrence Logan International Airport, 22.5 nm (41.7 km) SW. Retrieved 2019/11/15 18:28 UTC (50 minutes ago):

TAF KBOS 151720Z 1518/1624 24015G24KT P6SM SKC FM160000 27011G19KT P6SM FEW200 FM160400 30012G21KT P6SM SCT120 FM160600 35015G28KT P6SM SCT040 FM161500 36010G20KT P6SM SKC